createdAt,value
2023-02-02T00:00:28.931Z,5.12
2023-02-02T00:03:31.811Z,5.04
2023-02-02T00:06:34.317Z,5.19
2023-02-02T00:09:37.290Z,5.02
2023-02-02T00:12:39.772Z,5.01
2023-02-02T00:15:42.558Z,4.85
2023-02-02T00:18:45.135Z,5.01
2023-02-02T00:21:48.409Z,4.96
2023-02-02T00:24:50.927Z,4.91
2023-02-02T00:27:53.709Z,4.86
2023-02-02T00:30:57.462Z,4.66
2023-02-02T00:34:00.512Z,4.69
2023-02-02T00:37:04.177Z,4.93
2023-02-02T00:40:08.120Z,4.85
2023-02-02T00:43:11.000Z,4.78
2023-02-02T00:46:15.154Z,4.69
2023-02-02T00:49:17.641Z,4.76
2023-02-02T00:52:20.470Z,4.72
2023-02-02T00:55:23.283Z,4.69
2023-02-02T00:58:26.180Z,4.69
2023-02-02T01:01:29.071Z,4.63
2023-02-02T01:04:32.036Z,4.69
2023-02-02T01:07:34.480Z,4.74
2023-02-02T01:10:37.444Z,4.72
2023-02-02T01:13:40.033Z,4.62
2023-02-02T01:16:42.985Z,4.65
2023-02-02T01:19:45.968Z,4.53
2023-02-02T01:22:48.851Z,4.68
2023-02-02T01:25:56.002Z,4.69
2023-02-02T01:28:58.942Z,4.72
2023-02-02T01:32:01.538Z,4.55
2023-02-02T01:35:04.610Z,4.65
2023-02-02T01:38:07.195Z,4.61
2023-02-02T01:41:19.232Z,4.53
2023-02-02T01:44:53.190Z,4.63
2023-02-02T01:47:59.030Z,4.59
2023-02-02T01:51:05.260Z,4.64
2023-02-02T01:54:14.078Z,4.72
2023-02-02T01:57:39.221Z,4.49
2023-02-02T02:00:43.226Z,4.55
2023-02-02T02:03:45.983Z,4.47
2023-02-02T02:06:48.823Z,4.53
2023-02-02T02:09:52.194Z,4.39
2023-02-02T02:12:54.830Z,4.43
2023-02-02T02:16:19.816Z,4.48
2023-02-02T02:20:03.971Z,4.34
2023-02-02T02:23:44.589Z,4.05
2023-02-02T02:26:59.485Z,4.22
2023-02-02T02:30:23.886Z,4.20
2023-02-02T02:33:36.182Z,4.29
2023-02-02T02:36:42.049Z,4.18
2023-02-02T02:39:58.244Z,4.33
2023-02-02T02:43:09.712Z,4.32
2023-02-02T02:46:12.679Z,4.31
2023-02-02T02:49:15.882Z,4.48
2023-02-02T02:52:19.703Z,4.42
2023-02-02T02:55:24.413Z,4.53
2023-02-02T02:58:36.924Z,4.38
2023-02-02T03:01:50.791Z,4.26
2023-02-02T03:05:05.433Z,4.47
2023-02-02T03:08:39.983Z,4.51
2023-02-02T03:11:42.659Z,4.26
2023-02-02T03:14:45.471Z,4.24
2023-02-02T03:17:49.302Z,4.19
2023-02-02T03:20:52.226Z,4.28
2023-02-02T03:23:55.128Z,4.22
2023-02-02T03:26:58.050Z,4.24
2023-02-02T03:30:01.312Z,4.24
2023-02-02T03:33:04.942Z,4.31
2023-02-02T03:36:07.926Z,4.19
2023-02-02T03:39:10.776Z,4.44
2023-02-02T03:42:13.244Z,4.31
2023-02-02T03:45:16.238Z,4.21
2023-02-02T03:48:18.736Z,4.21
2023-02-02T03:51:21.546Z,4.26
2023-02-02T03:54:24.133Z,4.21
2023-02-02T03:57:26.918Z,4.17
2023-02-02T04:00:29.567Z,4.15
2023-02-02T04:03:32.834Z,4.38
2023-02-02T04:06:35.369Z,4.16
2023-02-02T04:09:38.137Z,4.26
2023-02-02T04:12:40.835Z,4.12
2023-02-02T04:15:43.670Z,4.13
2023-02-02T04:18:46.136Z,4.22
2023-02-02T04:21:49.122Z,3.98
2023-02-02T04:24:51.749Z,3.94
2023-02-02T04:27:54.706Z,4.02
2023-02-02T04:30:57.350Z,3.96
2023-02-02T04:34:00.773Z,3.98
2023-02-02T04:37:03.360Z,3.78
2023-02-02T04:40:06.924Z,3.79
2023-02-02T04:43:10.319Z,3.84
2023-02-02T04:46:13.811Z,3.83
2023-02-02T04:49:16.296Z,3.67
2023-02-02T04:52:19.172Z,3.90
2023-02-02T04:55:22.141Z,3.73
2023-02-02T04:58:25.082Z,3.52
2023-02-02T05:01:29.038Z,3.53
2023-02-02T05:04:31.901Z,3.58
2023-02-02T05:07:34.737Z,3.48
2023-02-02T05:10:40.926Z,3.49
2023-02-02T05:13:48.506Z,3.49
2023-02-02T05:16:51.437Z,3.50
2023-02-02T05:19:53.934Z,3.41
2023-02-02T05:22:56.812Z,3.42
2023-02-02T05:25:59.357Z,3.39
2023-02-02T05:29:02.925Z,3.42
2023-02-02T05:32:05.467Z,3.33
2023-02-02T05:35:09.361Z,3.49
2023-02-02T05:38:11.921Z,3.50
2023-02-02T05:41:14.860Z,3.46
2023-02-02T05:44:17.427Z,3.46
2023-02-02T05:47:20.225Z,3.46
2023-02-02T05:50:23.053Z,3.41
2023-02-02T05:53:36.101Z,3.33
2023-02-02T05:56:38.814Z,3.42
2023-02-02T05:59:41.594Z,3.38
2023-02-02T06:02:44.185Z,3.37
2023-02-02T06:05:47.028Z,3.43
2023-02-02T06:08:49.905Z,3.31
2023-02-02T06:11:52.690Z,3.35
2023-02-02T06:14:55.209Z,3.24
2023-02-02T06:17:58.769Z,3.17
2023-02-02T06:21:02.392Z,3.15
2023-02-02T06:24:05.639Z,3.18
2023-02-02T06:27:08.116Z,3.28
2023-02-02T06:30:11.660Z,3.33
2023-02-02T06:33:14.200Z,3.20
2023-02-02T06:36:17.037Z,3.24
2023-02-02T06:39:19.835Z,3.12
2023-02-02T06:42:22.808Z,3.30
2023-02-02T06:45:26.460Z,3.45
2023-02-02T06:48:29.636Z,3.47
2023-02-02T06:51:32.145Z,3.38
2023-02-02T06:54:34.984Z,3.47
2023-02-02T06:57:37.478Z,3.24
2023-02-02T07:00:40.322Z,3.40
2023-02-02T07:03:43.366Z,3.55
2023-02-02T07:06:46.372Z,3.51
2023-02-02T07:09:48.883Z,3.52
2023-02-02T07:13:01.321Z,3.41
2023-02-02T07:16:05.234Z,3.49
2023-02-02T07:19:08.231Z,3.58
2023-02-02T07:22:10.905Z,3.53
2023-02-02T07:25:13.754Z,3.76
2023-02-02T07:28:16.261Z,3.69
2023-02-02T07:31:21.737Z,3.82
2023-02-02T07:34:24.393Z,3.91
2023-02-02T07:37:27.171Z,4.04
2023-02-02T07:40:29.758Z,3.96
2023-02-02T07:43:32.814Z,4.10
2023-02-02T07:46:35.513Z,4.22
2023-02-02T07:49:39.178Z,4.27
2023-02-02T07:52:41.835Z,4.24
2023-02-02T07:55:44.780Z,4.33
2023-02-02T07:58:47.786Z,4.30
2023-02-02T08:01:51.754Z,4.33
2023-02-02T08:04:54.652Z,4.48
2023-02-02T08:07:57.301Z,4.66
2023-02-02T08:11:00.193Z,4.73
2023-02-02T08:14:05.353Z,4.73
2023-02-02T08:17:08.335Z,4.70
2023-02-02T08:20:13.535Z,4.78
2023-02-02T08:23:16.800Z,4.84
2023-02-02T08:26:25.159Z,5.05
2023-02-02T08:29:28.080Z,5.17
2023-02-02T08:32:31.496Z,5.15
2023-02-02T08:35:34.322Z,5.34
2023-02-02T08:38:36.876Z,5.41
2023-02-02T08:41:40.472Z,5.55
2023-02-02T08:46:00.055Z,5.56
2023-02-02T08:48:12.140Z,5.60
2023-02-02T08:51:18.486Z,5.60
2023-02-02T08:54:21.594Z,5.63
2023-02-02T08:57:24.101Z,5.67
2023-02-02T09:00:27.189Z,5.71
2023-02-02T09:03:29.696Z,5.72
2023-02-02T09:06:40.131Z,5.68
2023-02-02T09:09:42.785Z,5.64
2023-02-02T09:12:45.794Z,5.61
2023-02-02T09:15:48.679Z,5.46
2023-02-02T09:18:51.635Z,5.45
2023-02-02T09:21:54.365Z,5.57
2023-02-02T09:24:57.182Z,5.45
2023-02-02T09:27:59.643Z,5.68
2023-02-02T09:31:02.747Z,5.74
2023-02-02T09:34:10.235Z,5.57
2023-02-02T09:37:13.041Z,5.59
2023-02-02T09:40:19.217Z,5.65
2023-02-02T09:43:42.939Z,5.67
2023-02-02T09:47:17.030Z,5.69
2023-02-02T09:51:01.580Z,5.75
2023-02-02T09:54:32.441Z,5.83
2023-02-02T09:57:43.284Z,5.85
